sensor_id;sensor_type;location;lat;lon;timestamp;temperature;humidity
13529;DHT22;4419;50.882;4.718;2022-08-19T00:00:06;21.70;99.90
13529;DHT22;4419;50.882;4.718;2022-08-19T00:02:33;21.70;99.90
13529;DHT22;4419;50.882;4.718;2022-08-19T00:04:59;21.60;99.90
13529;DHT22;4419;50.882;4.718;2022-08-19T00:07:24;21.50;99.90
13529;DHT22;4419;50.882;4.718;2022-08-19T00:09:58;21.50;99.90
13529;DHT22;4419;50.882;4.718;2022-08-19T00:12:24;21.40;99.90
13529;DHT22;4419;50.882;4.718;2022-08-19T00:14:49;21.30;99.90
13529;DHT22;4419;50.882;4.718;2022-08-19T00:17:15;21.30;99.90
13529;DHT22;4419;50.882;4.718;2022-08-19T00:19:41;21.40;99.90
13529;DHT22;4419;50.882;4.718;2022-08-19T00:22:06;21.40;99.90
13529;DHT22;4419;50.882;4.718;2022-08-19T00:24:33;21.30;99.90
13529;DHT22;4419;50.882;4.718;2022-08-19T00:27:00;21.30;99.90
13529;DHT22;4419;50.882;4.718;2022-08-19T00:29:27;21.40;99.90
13529;DHT22;4419;50.882;4.718;2022-08-19T00:31:53;21.50;99.90
13529;DHT22;4419;50.882;4.718;2022-08-19T00:34:20;21.40;99.90
13529;DHT22;4419;50.882;4.718;2022-08-19T00:36:46;21.40;99.90
13529;DHT22;4419;50.882;4.718;2022-08-19T00:39:12;21.40;99.90
13529;DHT22;4419;50.882;4.718;2022-08-19T00:41:39;21.50;99.90
13529;DHT22;4419;50.882;4.718;2022-08-19T00:44:06;21.50;99.90
13529;DHT22;4419;50.882;4.718;2022-08-19T00:46:33;21.50;99.90
13529;DHT22;4419;50.882;4.718;2022-08-19T00:49:01;21.50;99.90
13529;DHT22;4419;50.882;4.718;2022-08-19T00:51:28;21.40;99.90
13529;DHT22;4419;50.882;4.718;2022-08-19T00:53:55;21.40;99.90
13529;DHT22;4419;50.882;4.718;2022-08-19T00:56:22;21.40;99.90
13529;DHT22;4419;50.882;4.718;2022-08-19T00:58:48;21.40;99.90
13529;DHT22;4419;50.882;4.718;2022-08-19T01:01:14;21.40;99.90
13529;DHT22;4419;50.882;4.718;2022-08-19T01:03:40;21.30;99.90
13529;DHT22;4419;50.882;4.718;2022-08-19T01:06:06;21.30;99.90
13529;DHT22;4419;50.882;4.718;2022-08-19T01:08:32;21.30;99.90
13529;DHT22;4419;50.882;4.718;2022-08-19T01:10:58;21.20;99.90
13529;DHT22;4419;50.882;4.718;2022-08-19T01:13:27;21.20;99.90
13529;DHT22;4419;50.882;4.718;2022-08-19T01:15:57;21.20;99.90
13529;DHT22;4419;50.882;4.718;2022-08-19T01:18:23;21.20;99.90
13529;DHT22;4419;50.882;4.718;2022-08-19T01:20:49;21.20;99.90
13529;DHT22;4419;50.882;4.718;2022-08-19T01:23:15;21.10;99.90
13529;DHT22;4419;50.882;4.718;2022-08-19T01:25:48;21.10;99.90
13529;DHT22;4419;50.882;4.718;2022-08-19T01:28:33;21.00;99.90
13529;DHT22;4419;50.882;4.718;2022-08-19T01:30:58;21.10;99.90
13529;DHT22;4419;50.882;4.718;2022-08-19T01:33:24;21.10;99.90
13529;DHT22;4419;50.882;4.718;2022-08-19T01:35:49;21.00;99.90
13529;DHT22;4419;50.882;4.718;2022-08-19T01:38:21;21.00;99.90
13529;DHT22;4419;50.882;4.718;2022-08-19T01:40:47;20.90;99.90
13529;DHT22;4419;50.882;4.718;2022-08-19T01:43:12;20.90;99.90
13529;DHT22;4419;50.882;4.718;2022-08-19T01:45:38;20.90;99.90
13529;DHT22;4419;50.882;4.718;2022-08-19T01:48:05;20.90;99.90
13529;DHT22;4419;50.882;4.718;2022-08-19T01:50:31;20.80;99.90
13529;DHT22;4419;50.882;4.718;2022-08-19T01:52:57;20.80;99.90
13529;DHT22;4419;50.882;4.718;2022-08-19T01:55:28;20.70;99.90
13529;DHT22;4419;50.882;4.718;2022-08-19T01:57:55;20.70;99.90
13529;DHT22;4419;50.882;4.718;2022-08-19T02:00:22;20.70;99.90
13529;DHT22;4419;50.882;4.718;2022-08-19T02:02:48;20.70;99.90
13529;DHT22;4419;50.882;4.718;2022-08-19T02:05:14;20.70;99.90
13529;DHT22;4419;50.882;4.718;2022-08-19T02:07:41;20.70;99.90
13529;DHT22;4419;50.882;4.718;2022-08-19T02:10:09;20.70;99.90
13529;DHT22;4419;50.882;4.718;2022-08-19T02:12:34;20.60;99.90
13529;DHT22;4419;50.882;4.718;2022-08-19T02:15:01;20.70;99.90
13529;DHT22;4419;50.882;4.718;2022-08-19T02:17:28;20.80;99.90
13529;DHT22;4419;50.882;4.718;2022-08-19T02:19:54;20.80;99.90
13529;DHT22;4419;50.882;4.718;2022-08-19T02:22:20;20.90;99.90
13529;DHT22;4419;50.882;4.718;2022-08-19T02:24:46;20.70;99.90
13529;DHT22;4419;50.882;4.718;2022-08-19T02:27:13;20.60;99.90
13529;DHT22;4419;50.882;4.718;2022-08-19T02:29:39;20.60;99.90
13529;DHT22;4419;50.882;4.718;2022-08-19T02:32:04;20.70;99.90
13529;DHT22;4419;50.882;4.718;2022-08-19T02:34:30;20.70;99.90
13529;DHT22;4419;50.882;4.718;2022-08-19T02:36:55;20.60;99.90
13529;DHT22;4419;50.882;4.718;2022-08-19T02:39:21;20.60;99.90
13529;DHT22;4419;50.882;4.718;2022-08-19T02:41:46;20.50;99.90
13529;DHT22;4419;50.882;4.718;2022-08-19T02:44:12;20.40;99.90
13529;DHT22;4419;50.882;4.718;2022-08-19T02:46:38;20.40;99.90
13529;DHT22;4419;50.882;4.718;2022-08-19T02:49:05;20.40;99.90
13529;DHT22;4419;50.882;4.718;2022-08-19T02:51:33;20.50;99.90
13529;DHT22;4419;50.882;4.718;2022-08-19T02:53:59;20.60;99.90
13529;DHT22;4419;50.882;4.718;2022-08-19T02:56:25;20.40;99.90
13529;DHT22;4419;50.882;4.718;2022-08-19T02:58:53;20.40;99.90
13529;DHT22;4419;50.882;4.718;2022-08-19T03:01:19;20.30;99.90
13529;DHT22;4419;50.882;4.718;2022-08-19T03:03:45;20.20;99.90
13529;DHT22;4419;50.882;4.718;2022-08-19T03:06:12;20.20;99.90
13529;DHT22;4419;50.882;4.718;2022-08-19T03:08:39;20.20;99.90
13529;DHT22;4419;50.882;4.718;2022-08-19T03:11:05;20.20;99.90
13529;DHT22;4419;50.882;4.718;2022-08-19T03:13:30;20.10;99.90
13529;DHT22;4419;50.882;4.718;2022-08-19T03:15:56;20.00;99.90
13529;DHT22;4419;50.882;4.718;2022-08-19T03:18:22;20.00;99.90
13529;DHT22;4419;50.882;4.718;2022-08-19T03:20:48;19.90;99.90
13529;DHT22;4419;50.882;4.718;2022-08-19T03:23:15;19.90;99.90
13529;DHT22;4419;50.882;4.718;2022-08-19T03:25:41;19.90;99.90
13529;DHT22;4419;50.882;4.718;2022-08-19T03:28:15;19.90;99.90
13529;DHT22;4419;50.882;4.718;2022-08-19T03:30:42;19.90;99.90
13529;DHT22;4419;50.882;4.718;2022-08-19T03:33:08;19.80;99.90
13529;DHT22;4419;50.882;4.718;2022-08-19T03:35:34;19.80;99.90
13529;DHT22;4419;50.882;4.718;2022-08-19T03:38:02;19.80;99.90
13529;DHT22;4419;50.882;4.718;2022-08-19T03:40:28;19.70;99.90
13529;DHT22;4419;50.882;4.718;2022-08-19T03:42:56;19.70;99.90
13529;DHT22;4419;50.882;4.718;2022-08-19T03:45:22;19.70;99.90
13529;DHT22;4419;50.882;4.718;2022-08-19T03:47:48;19.60;99.90
13529;DHT22;4419;50.882;4.718;2022-08-19T03:50:13;19.60;99.90
13529;DHT22;4419;50.882;4.718;2022-08-19T03:52:39;19.70;99.90
13529;DHT22;4419;50.882;4.718;2022-08-19T03:55:05;19.60;99.90
13529;DHT22;4419;50.882;4.718;2022-08-19T03:57:30;19.60;99.90
13529;DHT22;4419;50.882;4.718;2022-08-19T03:59:57;19.70;99.90
13529;DHT22;4419;50.882;4.718;2022-08-19T04:02:23;19.60;99.90
13529;DHT22;4419;50.882;4.718;2022-08-19T04:04:49;19.50;99.90
13529;DHT22;4419;50.882;4.718;2022-08-19T04:07:14;19.50;99.90
13529;DHT22;4419;50.882;4.718;2022-08-19T04:09:41;19.40;99.90
13529;DHT22;4419;50.882;4.718;2022-08-19T04:12:07;19.40;99.90
13529;DHT22;4419;50.882;4.718;2022-08-19T04:14:33;19.50;99.90
13529;DHT22;4419;50.882;4.718;2022-08-19T04:16:59;19.50;99.90
13529;DHT22;4419;50.882;4.718;2022-08-19T04:19:25;19.40;99.90
13529;DHT22;4419;50.882;4.718;2022-08-19T04:21:52;19.30;99.90
13529;DHT22;4419;50.882;4.718;2022-08-19T04:24:18;19.40;99.90
13529;DHT22;4419;50.882;4.718;2022-08-19T04:26:44;19.30;99.90
13529;DHT22;4419;50.882;4.718;2022-08-19T04:29:13;19.20;99.90
13529;DHT22;4419;50.882;4.718;2022-08-19T04:31:39;19.20;99.90
13529;DHT22;4419;50.882;4.718;2022-08-19T04:34:06;19.30;99.90
13529;DHT22;4419;50.882;4.718;2022-08-19T04:36:32;19.20;99.90
13529;DHT22;4419;50.882;4.718;2022-08-19T04:38:59;19.20;99.90
13529;DHT22;4419;50.882;4.718;2022-08-19T04:41:26;19.10;99.90
13529;DHT22;4419;50.882;4.718;2022-08-19T04:44:10;19.10;99.90
13529;DHT22;4419;50.882;4.718;2022-08-19T04:46:36;19.10;99.90
13529;DHT22;4419;50.882;4.718;2022-08-19T04:49:02;19.20;99.90
13529;DHT22;4419;50.882;4.718;2022-08-19T04:51:30;19.10;99.90
13529;DHT22;4419;50.882;4.718;2022-08-19T04:53:56;19.10;99.90
13529;DHT22;4419;50.882;4.718;2022-08-19T04:56:22;19.10;99.90
13529;DHT22;4419;50.882;4.718;2022-08-19T04:58:48;19.10;99.90
13529;DHT22;4419;50.882;4.718;2022-08-19T05:01:14;19.20;99.90
13529;DHT22;4419;50.882;4.718;2022-08-19T05:03:42;19.10;99.90
13529;DHT22;4419;50.882;4.718;2022-08-19T05:06:09;19.10;99.90
13529;DHT22;4419;50.882;4.718;2022-08-19T05:08:36;19.10;99.90
13529;DHT22;4419;50.882;4.718;2022-08-19T05:11:07;19.00;99.90
13529;DHT22;4419;50.882;4.718;2022-08-19T05:13:32;19.00;99.90
13529;DHT22;4419;50.882;4.718;2022-08-19T05:15:58;18.90;99.90
13529;DHT22;4419;50.882;4.718;2022-08-19T05:18:24;18.80;99.90
13529;DHT22;4419;50.882;4.718;2022-08-19T05:21:10;18.80;99.90
13529;DHT22;4419;50.882;4.718;2022-08-19T05:23:54;18.80;99.90
13529;DHT22;4419;50.882;4.718;2022-08-19T05:26:20;18.90;99.90
13529;DHT22;4419;50.882;4.718;2022-08-19T05:28:45;18.90;99.90
13529;DHT22;4419;50.882;4.718;2022-08-19T05:31:11;18.90;99.90
13529;DHT22;4419;50.882;4.718;2022-08-19T05:33:37;18.90;99.90
13529;DHT22;4419;50.882;4.718;2022-08-19T05:36:05;18.90;99.90
13529;DHT22;4419;50.882;4.718;2022-08-19T05:38:35;18.90;99.90
13529;DHT22;4419;50.882;4.718;2022-08-19T05:41:06;18.90;99.90
13529;DHT22;4419;50.882;4.718;2022-08-19T05:43:31;18.90;99.90
13529;DHT22;4419;50.882;4.718;2022-08-19T05:45:57;18.90;99.90
13529;DHT22;4419;50.882;4.718;2022-08-19T05:48:23;18.90;99.90
13529;DHT22;4419;50.882;4.718;2022-08-19T05:50:49;19.00;99.90
13529;DHT22;4419;50.882;4.718;2022-08-19T05:53:16;18.80;99.90
13529;DHT22;4419;50.882;4.718;2022-08-19T05:55:41;18.80;99.90
13529;DHT22;4419;50.882;4.718;2022-08-19T05:58:07;18.60;99.90
13529;DHT22;4419;50.882;4.718;2022-08-19T06:00:33;18.70;99.90
13529;DHT22;4419;50.882;4.718;2022-08-19T06:02:58;18.60;99.90
13529;DHT22;4419;50.882;4.718;2022-08-19T06:05:29;18.60;99.90
13529;DHT22;4419;50.882;4.718;2022-08-19T06:07:54;18.60;99.90
13529;DHT22;4419;50.882;4.718;2022-08-19T06:10:20;18.60;99.90
13529;DHT22;4419;50.882;4.718;2022-08-19T06:12:47;18.70;99.90
13529;DHT22;4419;50.882;4.718;2022-08-19T06:15:13;18.70;99.90
13529;DHT22;4419;50.882;4.718;2022-08-19T06:17:39;18.80;99.90
13529;DHT22;4419;50.882;4.718;2022-08-19T06:20:08;18.70;99.90
13529;DHT22;4419;50.882;4.718;2022-08-19T06:22:42;18.80;99.90
13529;DHT22;4419;50.882;4.718;2022-08-19T06:25:08;18.90;99.90
13529;DHT22;4419;50.882;4.718;2022-08-19T06:27:34;19.10;99.90
13529;DHT22;4419;50.882;4.718;2022-08-19T06:30:01;19.00;99.90
13529;DHT22;4419;50.882;4.718;2022-08-19T06:32:26;19.00;99.90
13529;DHT22;4419;50.882;4.718;2022-08-19T06:34:52;19.00;99.90
13529;DHT22;4419;50.882;4.718;2022-08-19T06:37:17;18.90;99.90
13529;DHT22;4419;50.882;4.718;2022-08-19T06:39:43;19.00;99.90
13529;DHT22;4419;50.882;4.718;2022-08-19T06:42:10;19.10;99.90
13529;DHT22;4419;50.882;4.718;2022-08-19T06:44:42;19.10;99.90
13529;DHT22;4419;50.882;4.718;2022-08-19T06:47:09;19.20;99.90
13529;DHT22;4419;50.882;4.718;2022-08-19T06:49:38;19.30;99.90
13529;DHT22;4419;50.882;4.718;2022-08-19T06:52:04;19.40;99.90
13529;DHT22;4419;50.882;4.718;2022-08-19T06:54:30;19.40;99.90
13529;DHT22;4419;50.882;4.718;2022-08-19T06:57:16;19.40;99.90
13529;DHT22;4419;50.882;4.718;2022-08-19T06:59:42;19.50;99.90
13529;DHT22;4419;50.882;4.718;2022-08-19T07:02:08;19.60;99.90
13529;DHT22;4419;50.882;4.718;2022-08-19T07:04:34;19.60;99.90
13529;DHT22;4419;50.882;4.718;2022-08-19T07:07:04;19.70;99.90
13529;DHT22;4419;50.882;4.718;2022-08-19T07:09:32;19.70;99.90
13529;DHT22;4419;50.882;4.718;2022-08-19T07:11:58;19.70;99.90
13529;DHT22;4419;50.882;4.718;2022-08-19T07:14:25;19.80;99.90
13529;DHT22;4419;50.882;4.718;2022-08-19T07:16:52;19.80;99.90
13529;DHT22;4419;50.882;4.718;2022-08-19T07:19:18;19.90;99.90
13529;DHT22;4419;50.882;4.718;2022-08-19T07:21:45;20.00;99.90
13529;DHT22;4419;50.882;4.718;2022-08-19T07:24:11;19.90;99.90
13529;DHT22;4419;50.882;4.718;2022-08-19T07:26:38;20.00;99.90
13529;DHT22;4419;50.882;4.718;2022-08-19T07:29:24;19.90;99.90
13529;DHT22;4419;50.882;4.718;2022-08-19T07:31:50;20.10;99.90
13529;DHT22;4419;50.882;4.718;2022-08-19T07:34:16;20.00;99.90
13529;DHT22;4419;50.882;4.718;2022-08-19T07:36:42;20.10;99.90
13529;DHT22;4419;50.882;4.718;2022-08-19T07:39:30;20.20;99.90
13529;DHT22;4419;50.882;4.718;2022-08-19T07:41:56;20.30;99.90
13529;DHT22;4419;50.882;4.718;2022-08-19T07:44:22;20.50;99.90
13529;DHT22;4419;50.882;4.718;2022-08-19T07:46:49;20.60;99.90
13529;DHT22;4419;50.882;4.718;2022-08-19T07:49:15;20.70;99.90
13529;DHT22;4419;50.882;4.718;2022-08-19T07:54:42;20.80;99.90
13529;DHT22;4419;50.882;4.718;2022-08-19T07:57:07;20.90;99.90
13529;DHT22;4419;50.882;4.718;2022-08-19T07:59:33;21.00;99.90
13529;DHT22;4419;50.882;4.718;2022-08-19T08:01:59;21.20;99.90
13529;DHT22;4419;50.882;4.718;2022-08-19T08:04:26;21.30;99.90
13529;DHT22;4419;50.882;4.718;2022-08-19T08:07:10;21.30;99.90
13529;DHT22;4419;50.882;4.718;2022-08-19T08:09:54;21.30;99.90
13529;DHT22;4419;50.882;4.718;2022-08-19T08:12:25;21.40;99.90
13529;DHT22;4419;50.882;4.718;2022-08-19T08:14:54;21.40;99.90
13529;DHT22;4419;50.882;4.718;2022-08-19T08:17:21;21.50;99.90
13529;DHT22;4419;50.882;4.718;2022-08-19T08:19:48;21.50;99.90
13529;DHT22;4419;50.882;4.718;2022-08-19T08:22:16;21.60;99.90
13529;DHT22;4419;50.882;4.718;2022-08-19T08:25:05;21.60;99.90
13529;DHT22;4419;50.882;4.718;2022-08-19T08:27:31;21.80;99.90
13529;DHT22;4419;50.882;4.718;2022-08-19T08:30:18;21.90;99.90
13529;DHT22;4419;50.882;4.718;2022-08-19T08:32:44;21.90;99.90
13529;DHT22;4419;50.882;4.718;2022-08-19T08:35:12;22.00;99.90
13529;DHT22;4419;50.882;4.718;2022-08-19T08:37:38;22.10;99.90
13529;DHT22;4419;50.882;4.718;2022-08-19T08:40:11;22.00;99.90
13529;DHT22;4419;50.882;4.718;2022-08-19T08:42:40;22.10;99.90
13529;DHT22;4419;50.882;4.718;2022-08-19T08:45:13;22.00;99.90
13529;DHT22;4419;50.882;4.718;2022-08-19T08:47:41;22.00;99.90
13529;DHT22;4419;50.882;4.718;2022-08-19T08:52:42;22.30;99.90
13529;DHT22;4419;50.882;4.718;2022-08-19T08:55:10;22.40;99.90
13529;DHT22;4419;50.882;4.718;2022-08-19T09:00:04;22.50;99.90
13529;DHT22;4419;50.882;4.718;2022-08-19T09:02:31;22.50;99.90
13529;DHT22;4419;50.882;4.718;2022-08-19T09:04:57;22.60;99.90
13529;DHT22;4419;50.882;4.718;2022-08-19T09:10:13;22.80;99.90
13529;DHT22;4419;50.882;4.718;2022-08-19T09:12:44;22.90;99.90
13529;DHT22;4419;50.882;4.718;2022-08-19T09:15:14;23.20;99.90
13529;DHT22;4419;50.882;4.718;2022-08-19T09:17:41;23.20;99.90
13529;DHT22;4419;50.882;4.718;2022-08-19T09:22:34;23.00;99.90
13529;DHT22;4419;50.882;4.718;2022-08-19T09:25:00;22.90;99.90
13529;DHT22;4419;50.882;4.718;2022-08-19T09:27:26;22.90;99.90
13529;DHT22;4419;50.882;4.718;2022-08-19T09:29:52;23.10;99.90
13529;DHT22;4419;50.882;4.718;2022-08-19T09:32:19;23.30;99.90
13529;DHT22;4419;50.882;4.718;2022-08-19T09:34:45;23.20;99.90
13529;DHT22;4419;50.882;4.718;2022-08-19T09:37:10;23.10;99.90
13529;DHT22;4419;50.882;4.718;2022-08-19T09:39:37;23.10;99.90
13529;DHT22;4419;50.882;4.718;2022-08-19T09:42:03;23.00;99.90
13529;DHT22;4419;50.882;4.718;2022-08-19T09:44:30;23.00;99.90
13529;DHT22;4419;50.882;4.718;2022-08-19T09:46:55;23.10;99.90
13529;DHT22;4419;50.882;4.718;2022-08-19T09:49:21;23.20;99.90
13529;DHT22;4419;50.882;4.718;2022-08-19T09:51:53;23.20;99.90
13529;DHT22;4419;50.882;4.718;2022-08-19T09:54:21;23.20;99.90
13529;DHT22;4419;50.882;4.718;2022-08-19T09:56:48;23.20;99.90
13529;DHT22;4419;50.882;4.718;2022-08-19T09:59:13;23.20;99.90
13529;DHT22;4419;50.882;4.718;2022-08-19T10:01:39;23.20;99.90
13529;DHT22;4419;50.882;4.718;2022-08-19T10:04:05;23.30;99.90
13529;DHT22;4419;50.882;4.718;2022-08-19T10:06:34;23.30;99.90
13529;DHT22;4419;50.882;4.718;2022-08-19T10:08:59;23.20;99.90
13529;DHT22;4419;50.882;4.718;2022-08-19T10:11:45;23.00;99.90
13529;DHT22;4419;50.882;4.718;2022-08-19T10:14:13;22.90;99.90
13529;DHT22;4419;50.882;4.718;2022-08-19T10:16:38;22.90;99.90
13529;DHT22;4419;50.882;4.718;2022-08-19T10:19:05;22.90;99.90
13529;DHT22;4419;50.882;4.718;2022-08-19T10:21:50;22.90;99.90
13529;DHT22;4419;50.882;4.718;2022-08-19T10:24:16;22.90;99.90
13529;DHT22;4419;50.882;4.718;2022-08-19T10:26:42;23.00;99.90
13529;DHT22;4419;50.882;4.718;2022-08-19T10:29:09;23.10;99.90
13529;DHT22;4419;50.882;4.718;2022-08-19T10:31:43;23.10;99.90
13529;DHT22;4419;50.882;4.718;2022-08-19T10:34:08;23.30;99.90
13529;DHT22;4419;50.882;4.718;2022-08-19T10:36:35;23.30;99.90
13529;DHT22;4419;50.882;4.718;2022-08-19T10:39:03;23.20;99.90
13529;DHT22;4419;50.882;4.718;2022-08-19T10:41:30;23.20;99.90
13529;DHT22;4419;50.882;4.718;2022-08-19T10:43:57;23.20;99.90
13529;DHT22;4419;50.882;4.718;2022-08-19T10:46:24;23.10;99.90
13529;DHT22;4419;50.882;4.718;2022-08-19T10:48:50;22.90;99.90
13529;DHT22;4419;50.882;4.718;2022-08-19T10:51:16;23.10;99.90
13529;DHT22;4419;50.882;4.718;2022-08-19T10:54:07;23.20;99.90
13529;DHT22;4419;50.882;4.718;2022-08-19T10:56:33;23.30;99.90
13529;DHT22;4419;50.882;4.718;2022-08-19T10:59:27;23.40;99.90
13529;DHT22;4419;50.882;4.718;2022-08-19T11:01:54;23.60;99.90
13529;DHT22;4419;50.882;4.718;2022-08-19T11:04:23;23.70;99.90
13529;DHT22;4419;50.882;4.718;2022-08-19T11:06:49;23.70;99.90
13529;DHT22;4419;50.882;4.718;2022-08-19T11:09:15;23.60;99.90
13529;DHT22;4419;50.882;4.718;2022-08-19T11:11:41;23.70;99.90
13529;DHT22;4419;50.882;4.718;2022-08-19T11:14:08;23.80;99.90
13529;DHT22;4419;50.882;4.718;2022-08-19T11:16:34;23.80;99.90
13529;DHT22;4419;50.882;4.718;2022-08-19T11:19:01;23.90;99.90
13529;DHT22;4419;50.882;4.718;2022-08-19T11:23:54;23.50;99.90
13529;DHT22;4419;50.882;4.718;2022-08-19T11:26:22;23.50;99.90
13529;DHT22;4419;50.882;4.718;2022-08-19T11:28:48;23.40;99.90
13529;DHT22;4419;50.882;4.718;2022-08-19T11:31:34;23.40;99.90
13529;DHT22;4419;50.882;4.718;2022-08-19T11:34:05;23.50;99.90
13529;DHT22;4419;50.882;4.718;2022-08-19T11:36:31;23.50;99.90
13529;DHT22;4419;50.882;4.718;2022-08-19T11:38:57;23.50;99.90
13529;DHT22;4419;50.882;4.718;2022-08-19T11:41:23;23.60;99.90
13529;DHT22;4419;50.882;4.718;2022-08-19T11:43:49;23.70;99.90
13529;DHT22;4419;50.882;4.718;2022-08-19T11:46:16;23.70;99.90
13529;DHT22;4419;50.882;4.718;2022-08-19T11:48:41;23.50;99.90
13529;DHT22;4419;50.882;4.718;2022-08-19T11:51:12;23.40;99.90
13529;DHT22;4419;50.882;4.718;2022-08-19T11:53:38;23.40;99.90
13529;DHT22;4419;50.882;4.718;2022-08-19T11:56:05;23.40;99.90
13529;DHT22;4419;50.882;4.718;2022-08-19T11:58:31;23.40;99.90
13529;DHT22;4419;50.882;4.718;2022-08-19T12:00:56;23.50;99.90
13529;DHT22;4419;50.882;4.718;2022-08-19T12:03:22;23.60;99.90
13529;DHT22;4419;50.882;4.718;2022-08-19T12:05:48;23.60;99.90
13529;DHT22;4419;50.882;4.718;2022-08-19T12:08:15;23.40;99.90
13529;DHT22;4419;50.882;4.718;2022-08-19T12:10:41;23.40;99.90
13529;DHT22;4419;50.882;4.718;2022-08-19T12:13:07;23.30;99.90
13529;DHT22;4419;50.882;4.718;2022-08-19T12:15:37;23.40;99.90
13529;DHT22;4419;50.882;4.718;2022-08-19T12:18:03;23.40;99.90
13529;DHT22;4419;50.882;4.718;2022-08-19T12:20:29;23.30;99.90
13529;DHT22;4419;50.882;4.718;2022-08-19T12:22:54;23.30;99.90
13529;DHT22;4419;50.882;4.718;2022-08-19T12:25:20;23.30;99.90
13529;DHT22;4419;50.882;4.718;2022-08-19T12:27:46;23.30;99.90
13529;DHT22;4419;50.882;4.718;2022-08-19T12:30:12;23.20;99.90
13529;DHT22;4419;50.882;4.718;2022-08-19T12:32:38;23.20;99.90
13529;DHT22;4419;50.882;4.718;2022-08-19T12:35:04;23.20;99.90
13529;DHT22;4419;50.882;4.718;2022-08-19T12:37:30;23.20;99.90
13529;DHT22;4419;50.882;4.718;2022-08-19T12:39:57;23.30;99.90
13529;DHT22;4419;50.882;4.718;2022-08-19T12:42:23;23.40;99.90
13529;DHT22;4419;50.882;4.718;2022-08-19T12:44:49;23.60;99.90
13529;DHT22;4419;50.882;4.718;2022-08-19T12:47:17;23.80;99.90
13529;DHT22;4419;50.882;4.718;2022-08-19T12:49:43;24.00;99.90
13529;DHT22;4419;50.882;4.718;2022-08-19T12:52:09;24.10;99.90
13529;DHT22;4419;50.882;4.718;2022-08-19T12:54:35;24.30;99.90
13529;DHT22;4419;50.882;4.718;2022-08-19T12:57:04;24.30;99.90
13529;DHT22;4419;50.882;4.718;2022-08-19T12:59:30;24.40;99.90
13529;DHT22;4419;50.882;4.718;2022-08-19T13:01:55;24.60;99.90
13529;DHT22;4419;50.882;4.718;2022-08-19T13:04:21;24.60;99.90
13529;DHT22;4419;50.882;4.718;2022-08-19T13:06:47;24.80;99.90
13529;DHT22;4419;50.882;4.718;2022-08-19T13:09:12;24.90;99.90
13529;DHT22;4419;50.882;4.718;2022-08-19T13:11:38;25.20;99.90
13529;DHT22;4419;50.882;4.718;2022-08-19T13:14:04;25.40;99.90
13529;DHT22;4419;50.882;4.718;2022-08-19T13:16:30;25.50;99.90
13529;DHT22;4419;50.882;4.718;2022-08-19T13:18:56;25.80;99.90
13529;DHT22;4419;50.882;4.718;2022-08-19T13:21:23;25.60;99.90
13529;DHT22;4419;50.882;4.718;2022-08-19T13:23:49;25.50;99.90
13529;DHT22;4419;50.882;4.718;2022-08-19T13:26:15;25.80;99.90
13529;DHT22;4419;50.882;4.718;2022-08-19T13:28:41;25.90;99.90
13529;DHT22;4419;50.882;4.718;2022-08-19T13:31:27;26.10;98.20
13529;DHT22;4419;50.882;4.718;2022-08-19T13:34:12;26.20;93.90
13529;DHT22;4419;50.882;4.718;2022-08-19T13:36:37;26.40;96.30
13529;DHT22;4419;50.882;4.718;2022-08-19T13:39:03;26.60;91.80
13529;DHT22;4419;50.882;4.718;2022-08-19T13:41:29;26.30;91.30
13529;DHT22;4419;50.882;4.718;2022-08-19T13:43:55;26.00;93.90
13529;DHT22;4419;50.882;4.718;2022-08-19T13:46:21;25.80;99.90
13529;DHT22;4419;50.882;4.718;2022-08-19T13:48:46;25.80;99.50
13529;DHT22;4419;50.882;4.718;2022-08-19T13:51:14;25.90;98.80
13529;DHT22;4419;50.882;4.718;2022-08-19T13:53:41;25.90;96.20
13529;DHT22;4419;50.882;4.718;2022-08-19T13:56:09;26.00;96.90
13529;DHT22;4419;50.882;4.718;2022-08-19T13:58:35;26.10;92.30
13529;DHT22;4419;50.882;4.718;2022-08-19T14:01:01;26.30;94.10
13529;DHT22;4419;50.882;4.718;2022-08-19T14:03:27;26.40;92.80
13529;DHT22;4419;50.882;4.718;2022-08-19T14:05:53;26.50;79.90
13529;DHT22;4419;50.882;4.718;2022-08-19T14:08:18;26.50;82.00
13529;DHT22;4419;50.882;4.718;2022-08-19T14:10:44;26.40;80.60
13529;DHT22;4419;50.882;4.718;2022-08-19T14:13:12;26.30;83.10
13529;DHT22;4419;50.882;4.718;2022-08-19T14:15:38;26.20;84.40
13529;DHT22;4419;50.882;4.718;2022-08-19T14:18:03;26.20;83.40
13529;DHT22;4419;50.882;4.718;2022-08-19T14:20:29;26.10;83.90
13529;DHT22;4419;50.882;4.718;2022-08-19T14:22:54;26.10;87.50
13529;DHT22;4419;50.882;4.718;2022-08-19T14:25:26;25.90;92.50
13529;DHT22;4419;50.882;4.718;2022-08-19T14:27:51;25.70;93.10
13529;DHT22;4419;50.882;4.718;2022-08-19T14:30:19;25.70;95.80
13529;DHT22;4419;50.882;4.718;2022-08-19T14:32:44;25.70;95.30
13529;DHT22;4419;50.882;4.718;2022-08-19T14:35:10;25.80;95.10
13529;DHT22;4419;50.882;4.718;2022-08-19T14:37:38;26.10;92.70
13529;DHT22;4419;50.882;4.718;2022-08-19T14:40:04;26.30;86.80
13529;DHT22;4419;50.882;4.718;2022-08-19T14:42:30;26.40;84.70
13529;DHT22;4419;50.882;4.718;2022-08-19T14:44:59;26.40;86.90
13529;DHT22;4419;50.882;4.718;2022-08-19T14:47:24;26.30;82.70
13529;DHT22;4419;50.882;4.718;2022-08-19T14:49:50;26.30;80.10
13529;DHT22;4419;50.882;4.718;2022-08-19T14:52:31;26.20;81.30
13529;DHT22;4419;50.882;4.718;2022-08-19T14:54:56;26.10;87.10
13529;DHT22;4419;50.882;4.718;2022-08-19T14:57:22;25.80;91.90
13529;DHT22;4419;50.882;4.718;2022-08-19T14:59:47;25.60;92.30
13529;DHT22;4419;50.882;4.718;2022-08-19T15:02:13;25.50;98.50
13529;DHT22;4419;50.882;4.718;2022-08-19T15:04:39;25.10;99.90
13529;DHT22;4419;50.882;4.718;2022-08-19T15:07:04;25.10;99.90
13529;DHT22;4419;50.882;4.718;2022-08-19T15:09:30;25.10;99.90
13529;DHT22;4419;50.882;4.718;2022-08-19T15:11:56;25.10;99.90
13529;DHT22;4419;50.882;4.718;2022-08-19T15:14:24;25.00;99.90
13529;DHT22;4419;50.882;4.718;2022-08-19T15:16:50;24.90;99.90
13529;DHT22;4419;50.882;4.718;2022-08-19T15:19:15;24.60;99.90
13529;DHT22;4419;50.882;4.718;2022-08-19T15:21:41;24.40;99.90
13529;DHT22;4419;50.882;4.718;2022-08-19T15:24:06;24.30;99.90
13529;DHT22;4419;50.882;4.718;2022-08-19T15:26:32;23.90;99.90
13529;DHT22;4419;50.882;4.718;2022-08-19T15:28:58;24.00;99.90
13529;DHT22;4419;50.882;4.718;2022-08-19T15:31:39;24.00;99.90
13529;DHT22;4419;50.882;4.718;2022-08-19T15:34:05;24.10;99.90
13529;DHT22;4419;50.882;4.718;2022-08-19T15:36:31;24.10;99.90
13529;DHT22;4419;50.882;4.718;2022-08-19T15:38:56;24.00;99.90
13529;DHT22;4419;50.882;4.718;2022-08-19T15:41:23;23.90;99.90
13529;DHT22;4419;50.882;4.718;2022-08-19T15:43:50;23.90;99.90
13529;DHT22;4419;50.882;4.718;2022-08-19T15:46:20;23.90;99.90
13529;DHT22;4419;50.882;4.718;2022-08-19T15:48:49;23.80;99.90
13529;DHT22;4419;50.882;4.718;2022-08-19T15:51:14;23.60;99.90
13529;DHT22;4419;50.882;4.718;2022-08-19T15:53:40;23.40;99.90
13529;DHT22;4419;50.882;4.718;2022-08-19T15:56:26;23.20;99.90
13529;DHT22;4419;50.882;4.718;2022-08-19T15:59:12;23.20;99.90
13529;DHT22;4419;50.882;4.718;2022-08-19T16:01:56;23.40;99.90